Time;durP1;ratioP1;P1;durP2;ratioP2;P2;SDS_P1;SDS_P2;PMS_P1;PMS_P2;Temp;Humidity;BMP_temperature;BMP_pressure;BME280_temperature;BME280_humidity;BME280_pressure;Samples;Min_cycle;Max_cycle;Signal;HPM_P1;HPM_P2
2023/02/20 00:01:54;;;;;;;10.53;6.50;;;6.30;99.90;;;;;;5033774;28;20285;-61
2023/02/20 00:04:21;;;;;;;11.07;6.33;;;6.40;99.90;;;;;;5037104;28;20218;-61
2023/02/20 00:06:49;;;;;;;11.53;6.03;;;6.30;99.90;;;;;;5038398;28;20301;-63
2023/02/20 00:09:16;;;;;;;12.77;6.27;;;6.30;99.90;;;;;;5035504;28;20192;-65
2023/02/20 00:11:43;;;;;;;12.40;6.70;;;6.30;99.90;;;;;;5034289;28;20736;-60
2023/02/20 00:14:10;;;;;;;10.37;6.17;;;6.40;99.90;;;;;;5038176;28;20288;-60
2023/02/20 00:16:37;;;;;;;11.07;6.63;;;6.40;99.90;;;;;;5034977;28;20223;-60
2023/02/20 00:19:04;;;;;;;9.33;6.80;;;6.40;99.90;;;;;;5036362;28;20222;-60
2023/02/20 00:21:31;;;;;;;13.87;6.30;;;6.40;99.90;;;;;;5036151;28;20255;-62
2023/02/20 00:23:58;;;;;;;9.67;6.23;;;6.30;99.90;;;;;;5032172;28;20196;-60
2023/02/20 00:26:25;;;;;;;11.17;6.57;;;6.40;99.90;;;;;;5030742;28;20310;-64
2023/02/20 00:28:51;;;;;;;11.10;5.97;;;6.40;99.90;;;;;;5027754;28;20542;-60
2023/02/20 00:31:19;;;;;;;12.93;7.10;;;6.40;99.90;;;;;;5022963;28;20239;-60
2023/02/20 00:33:46;;;;;;;10.40;7.03;;;6.40;99.90;;;;;;5023509;28;20267;-61
2023/02/20 00:36:17;;;;;;;11.90;6.43;;;6.50;99.90;;;;;;5028681;28;20237;-61
2023/02/20 00:38:45;;;;;;;11.57;7.20;;;6.50;99.90;;;;;;5029221;28;20202;-61
2023/02/20 00:41:13;;;;;;;11.90;6.70;;;6.50;99.90;;;;;;5029485;28;20204;-64
2023/02/20 00:43:40;;;;;;;10.77;6.93;;;6.50;99.90;;;;;;5030725;28;20206;-61
2023/02/20 00:46:11;;;;;;;11.53;6.30;;;6.50;99.90;;;;;;5029401;28;20225;-61
2023/02/20 00:48:39;;;;;;;11.70;7.03;;;6.50;99.90;;;;;;5036475;28;20560;-60
2023/02/20 00:51:05;;;;;;;14.70;7.30;;;6.50;99.90;;;;;;5022958;28;20210;-60
2023/02/20 00:53:32;;;;;;;14.17;6.90;;;6.50;99.90;;;;;;5026417;28;20358;-60
2023/02/20 00:55:59;;;;;;;9.60;6.93;;;6.50;99.90;;;;;;5028694;28;20690;-60
2023/02/20 00:58:26;;;;;;;8.73;6.90;;;6.50;99.90;;;;;;5029432;28;20197;-60
2023/02/20 01:00:53;;;;;;;11.57;7.70;;;6.50;99.90;;;;;;5031121;28;20286;-62
2023/02/20 01:03:19;;;;;;;12.07;7.60;;;6.50;99.90;;;;;;5031732;28;20314;-61
2023/02/20 01:05:46;;;;;;;14.03;6.93;;;6.50;99.90;;;;;;5036287;28;20308;-61
2023/02/20 01:08:13;;;;;;;12.43;7.40;;;6.50;99.90;;;;;;5017909;28;20197;-64
2023/02/20 01:10:40;;;;;;;13.17;8.13;;;6.40;99.90;;;;;;5027678;28;20201;-62
2023/02/20 01:13:07;;;;;;;12.30;7.93;;;6.40;99.90;;;;;;5022430;28;20298;-61
2023/02/20 01:15:33;;;;;;;10.30;7.07;;;6.40;99.90;;;;;;5027971;28;20200;-61
2023/02/20 01:18:00;;;;;;;11.60;7.17;;;6.40;99.90;;;;;;5030034;28;20713;-61
2023/02/20 01:20:27;;;;;;;17.50;7.83;;;6.40;99.90;;;;;;5030044;28;20266;-60
2023/02/20 01:22:54;;;;;;;11.80;6.90;;;6.40;99.90;;;;;;5032039;28;20255;-60
2023/02/20 01:25:21;;;;;;;13.27;7.87;;;6.30;99.90;;;;;;5039178;28;20650;-60
2023/02/20 01:27:48;;;;;;;12.93;7.80;;;6.30;99.90;;;;;;5036379;28;20273;-61
2023/02/20 01:30:14;;;;;;;10.83;7.30;;;6.30;99.90;;;;;;5023570;28;20308;-61
2023/02/20 01:32:41;;;;;;;13.67;8.53;;;6.30;99.90;;;;;;5031239;28;20291;-60
2023/02/20 01:35:08;;;;;;;12.57;7.93;;;6.30;99.90;;;;;;5028733;28;20923;-60
2023/02/20 01:37:35;;;;;;;11.47;7.70;;;6.20;99.90;;;;;;5027925;28;20231;-60
2023/02/20 01:40:04;;;;;;;13.60;6.80;;;6.20;99.90;;;;;;5027438;28;20204;-60
2023/02/20 01:42:32;;;;;;;11.20;7.37;;;6.20;99.90;;;;;;5030473;28;20239;-60
2023/02/20 01:45:30;;;;;;;10.67;6.90;;;6.20;99.90;;;;;;5030580;28;20240;-62
2023/02/20 01:47:57;;;;;;;12.67;7.13;;;6.10;99.90;;;;;;5032065;28;20630;-60
2023/02/20 01:50:31;;;;;;;15.37;8.13;;;6.10;99.90;;;;;;5034180;28;20304;-64
2023/02/20 01:53:04;;;;;;;13.10;7.70;;;6.10;99.90;;;;;;5033030;28;20322;-62
2023/02/20 01:55:40;;;;;;;14.67;8.10;;;6.10;99.90;;;;;;5036014;28;20279;-60
2023/02/20 01:58:35;;;;;;;19.10;9.10;;;6.10;99.90;;;;;;5034540;28;20200;-60
2023/02/20 02:01:04;;;;;;;16.93;8.27;;;6.00;99.90;;;;;;5035533;28;20294;-63
2023/02/20 02:03:35;;;;;;;12.20;7.67;;;6.00;99.90;;;;;;5034424;28;20285;-60
2023/02/20 02:06:06;;;;;;;15.83;8.27;;;5.90;99.90;;;;;;5036112;28;20215;-60
2023/02/20 02:08:36;;;;;;;14.27;8.77;;;6.00;99.90;;;;;;5030522;28;20278;-61
2023/02/20 02:11:09;;;;;;;13.60;7.83;;;5.90;99.90;;;;;;5033762;28;20201;-60
2023/02/20 02:13:37;;;;;;;10.90;8.10;;;5.90;99.90;;;;;;5034773;28;20203;-61
2023/02/20 02:16:26;;;;;;;12.80;8.07;;;5.90;99.90;;;;;;5042124;28;20258;-64
2023/02/20 02:19:16;;;;;;;15.67;8.40;;;5.90;99.90;;;;;;5034008;28;20250;-63
2023/02/20 02:22:20;;;;;;;18.27;9.80;;;5.90;99.90;;;;;;5030639;28;21010;-62
2023/02/20 02:25:08;;;;;;;12.07;8.77;;;5.90;99.90;;;;;;5035499;28;20392;-60
2023/02/20 02:28:16;;;;;;;14.00;8.03;;;5.80;99.90;;;;;;5034177;28;20193;-61
2023/02/20 02:31:04;;;;;;;14.87;7.70;;;5.90;99.90;;;;;;5036486;28;20696;-60
2023/02/20 02:33:36;;;;;;;13.03;8.47;;;5.80;99.90;;;;;;5031759;28;20188;-63
2023/02/20 02:36:20;;;;;;;14.60;8.37;;;5.80;99.90;;;;;;5036366;28;20228;-60
2023/02/20 02:38:55;;;;;;;14.10;8.53;;;5.80;99.90;;;;;;5032599;28;20246;-60
2023/02/20 02:41:54;;;;;;;18.53;9.13;;;5.70;99.90;;;;;;5034984;28;20228;-60
2023/02/20 02:44:41;;;;;;;18.57;9.83;;;5.70;99.90;;;;;;5033549;28;20204;-60
2023/02/20 02:47:14;;;;;;;21.77;9.57;;;5.70;99.90;;;;;;5041633;28;20667;-62
2023/02/20 02:49:44;;;;;;;17.20;9.60;;;5.80;99.90;;;;;;5032703;28;20192;-60
2023/02/20 02:52:11;;;;;;;17.93;10.80;;;5.80;99.90;;;;;;5033743;28;20217;-61
2023/02/20 02:54:38;;;;;;;15.73;9.87;;;5.80;99.90;;;;;;5032059;28;20624;-60
2023/02/20 02:57:35;;;;;;;25.83;11.73;;;5.90;99.90;;;;;;5039403;28;20207;-63
2023/02/20 03:00:34;;;;;;;21.47;12.43;;;6.00;99.90;;;;;;5024637;28;20205;-60
2023/02/20 03:03:15;;;;;;;20.23;12.80;;;5.90;99.90;;;;;;5021365;28;20214;-60
2023/02/20 03:05:45;;;;;;;27.13;12.83;;;6.00;99.90;;;;;;5036116;28;20632;-60
2023/02/20 03:08:40;;;;;;;19.93;12.83;;;6.00;99.90;;;;;;5037270;28;20655;-63
2023/02/20 03:11:09;;;;;;;26.63;14.40;;;6.00;99.90;;;;;;5033924;28;20251;-60
2023/02/20 03:16:55;;;;;;;32.70;15.63;;;6.10;99.90;;;;;;5035378;28;20295;-60
2023/02/20 03:19:27;;;;;;;32.23;15.83;;;6.20;99.90;;;;;;5033461;28;20717;-61
2023/02/20 03:21:56;;;;;;;29.73;16.33;;;6.20;99.90;;;;;;5035981;28;20278;-61
2023/02/20 03:24:25;;;;;;;33.03;17.93;;;6.20;99.90;;;;;;5035389;28;20205;-60
2023/02/20 03:26:56;;;;;;;40.40;18.60;;;6.20;99.90;;;;;;5035953;28;20220;-62
2023/02/20 03:29:29;;;;;;;32.47;19.03;;;6.30;99.90;;;;;;5041605;28;20232;-60
2023/02/20 03:43:26;;;;;;;37.57;18.90;;;6.40;99.90;;;;;;5037632;28;20302;-60
2023/02/20 03:46:05;;;;;;;38.97;21.87;;;6.40;99.90;;;;;;5036473;28;20212;-62
2023/02/20 03:48:45;;;;;;;34.30;19.50;;;6.40;99.90;;;;;;5035860;28;20201;-60
2023/02/20 03:51:13;;;;;;;42.93;19.30;;;6.50;99.90;;;;;;5033176;28;20279;-63
2023/02/20 03:53:42;;;;;;;33.00;18.37;;;6.50;99.90;;;;;;5035708;28;20277;-59
2023/02/20 03:56:14;;;;;;;33.23;18.77;;;6.60;99.90;;;;;;5036765;28;20273;-62
2023/02/20 03:58:47;;;;;;;34.93;21.63;;;6.60;99.90;;;;;;5035913;28;20276;-62
2023/02/20 04:01:16;;;;;;;30.60;18.90;;;6.70;99.90;;;;;;5037524;28;20239;-60
2023/02/20 04:03:46;;;;;;;31.43;19.30;;;6.70;99.90;;;;;;5032570;28;20207;-64
2023/02/20 04:06:16;;;;;;;33.30;20.00;;;6.70;99.90;;;;;;5034586;28;20323;-61
2023/02/20 04:08:57;;;;;;;36.87;20.30;;;6.80;99.90;;;;;;5033043;28;20201;-61
2023/02/20 04:11:31;;;;;;;37.60;20.57;;;6.90;99.90;;;;;;5035844;28;20285;-60
2023/02/20 04:13:59;;;;;;;37.87;20.67;;;6.90;99.90;;;;;;5036435;28;20292;-61
2023/02/20 04:16:26;;;;;;;36.53;20.10;;;6.90;99.90;;;;;;5033117;28;20616;-60
2023/02/20 04:18:53;;;;;;;38.93;20.30;;;6.90;99.90;;;;;;5030248;28;20203;-61
2023/02/20 04:21:28;;;;;;;36.67;19.83;;;7.00;99.90;;;;;;5034188;28;20208;-60
2023/02/20 04:24:03;;;;;;;33.37;20.50;;;7.00;99.90;;;;;;5038324;28;20541;-60
2023/02/20 04:26:30;;;;;;;33.67;20.43;;;7.10;99.90;;;;;;5033537;28;20306;-60
2023/02/20 04:28:57;;;;;;;41.90;21.57;;;7.10;99.90;;;;;;5030992;28;20232;-65
2023/02/20 04:31:25;;;;;;;36.57;20.87;;;7.10;99.90;;;;;;5033534;28;20289;-60
2023/02/20 04:33:52;;;;;;;36.53;20.80;;;7.10;99.90;;;;;;5035255;28;20196;-61
2023/02/20 04:36:19;;;;;;;32.03;19.00;;;7.10;99.90;;;;;;5034290;28;20228;-61
2023/02/20 04:38:46;;;;;;;29.63;19.23;;;7.10;99.90;;;;;;5032113;28;20295;-61
2023/02/20 04:41:13;;;;;;;36.27;20.10;;;7.20;99.90;;;;;;5035824;28;20298;-61
2023/02/20 04:43:40;;;;;;;39.53;22.00;;;7.20;99.90;;;;;;5032087;28;20209;-60
2023/02/20 04:46:07;;;;;;;27.77;17.47;;;7.20;99.90;;;;;;5033775;28;20223;-60
2023/02/20 04:48:33;;;;;;;32.63;18.40;;;7.20;99.90;;;;;;5032005;28;20253;-60
2023/02/20 04:51:00;;;;;;;31.67;18.63;;;7.20;99.90;;;;;;5033196;28;20771;-64
2023/02/20 04:53:28;;;;;;;30.50;17.87;;;7.20;99.90;;;;;;5033198;28;20322;-61
2023/02/20 04:55:55;;;;;;;33.07;18.50;;;7.20;99.90;;;;;;5038298;28;20589;-60
2023/02/20 04:58:22;;;;;;;35.77;17.53;;;7.30;99.90;;;;;;5041061;28;20233;-60
2023/02/20 05:00:49;;;;;;;40.07;18.97;;;7.20;99.90;;;;;;5033828;28;20408;-62
2023/02/20 05:03:15;;;;;;;27.80;17.37;;;7.30;99.90;;;;;;5032565;28;20870;-60
2023/02/20 05:05:42;;;;;;;29.13;16.30;;;7.30;99.90;;;;;;5032260;28;20209;-64
2023/02/20 05:08:09;;;;;;;25.07;15.87;;;7.30;99.90;;;;;;5034372;28;20775;-60
2023/02/20 05:10:36;;;;;;;27.93;16.03;;;7.30;99.90;;;;;;5036062;28;20198;-61
2023/02/20 05:13:03;;;;;;;29.20;15.00;;;7.40;99.90;;;;;;5036735;28;20680;-61
2023/02/20 05:15:31;;;;;;;25.03;14.03;;;7.40;99.90;;;;;;5036833;28;20189;-60
2023/02/20 05:17:58;;;;;;;33.13;15.13;;;7.40;99.90;;;;;;5034609;28;20201;-62
2023/02/20 05:22:17;;;;;;;24.13;14.30;;;7.40;99.90;;;;;;5035015;28;20251;-60
2023/02/20 05:23:11;;;;;;;23.60;13.93;;;7.50;99.90;;;;;;5034485;28;20208;-61
2023/02/20 05:25:38;;;;;;;20.27;12.83;;;7.50;99.90;;;;;;5036627;28;20652;-60
2023/02/20 05:28:05;;;;;;;26.40;14.37;;;7.50;99.90;;;;;;5032217;28;20248;-62
2023/02/20 05:30:32;;;;;;;23.80;12.37;;;7.50;99.90;;;;;;5032413;28;20628;-62
2023/02/20 05:32:58;;;;;;;22.80;13.40;;;7.40;99.90;;;;;;5037025;28;20653;-60
2023/02/20 05:35:25;;;;;;;24.60;12.47;;;7.60;99.90;;;;;;5031212;28;20232;-60
2023/02/20 05:37:52;;;;;;;23.60;13.33;;;7.50;99.90;;;;;;5037028;28;20706;-60
2023/02/20 05:40:19;;;;;;;26.97;13.10;;;7.60;99.90;;;;;;5032394;28;20197;-60
2023/02/20 05:42:46;;;;;;;20.20;11.27;;;7.60;99.90;;;;;;5035823;28;20557;-61
2023/02/20 05:45:14;;;;;;;24.00;12.03;;;7.60;99.90;;;;;;5036871;28;20657;-61
2023/02/20 05:47:40;;;;;;;21.63;11.73;;;7.60;99.90;;;;;;5034746;28;20220;-63
2023/02/20 05:50:07;;;;;;;16.20;10.87;;;7.60;99.90;;;;;;5031476;28;20277;-61
2023/02/20 05:52:34;;;;;;;21.30;11.63;;;7.60;99.90;;;;;;5029460;28;20594;-61
2023/02/20 05:55:01;;;;;;;17.87;10.57;;;7.60;99.90;;;;;;5035229;28;20244;-60
2023/02/20 05:57:28;;;;;;;18.73;10.07;;;7.70;99.90;;;;;;5032169;28;20238;-60
2023/02/20 05:59:55;;;;;;;18.60;11.17;;;7.60;99.90;;;;;;5033129;28;20208;-61
2023/02/20 06:02:21;;;;;;;22.97;11.20;;;7.70;99.90;;;;;;5035118;28;20608;-60
2023/02/20 06:04:48;;;;;;;20.40;11.20;;;7.70;99.90;;;;;;5036769;28;20583;-60
2023/02/20 06:07:15;;;;;;;17.80;10.43;;;7.70;99.90;;;;;;5036658;28;20228;-61
2023/02/20 06:09:43;;;;;;;21.70;10.97;;;7.70;99.90;;;;;;5033466;28;20589;-62
2023/02/20 06:12:10;;;;;;;17.17;11.20;;;7.70;99.90;;;;;;5037477;28;20523;-61
2023/02/20 06:14:37;;;;;;;17.87;10.50;;;7.70;99.90;;;;;;5033624;28;20727;-60
2023/02/20 06:17:03;;;;;;;18.30;10.37;;;7.80;99.90;;;;;;5032487;28;20621;-60
2023/02/20 06:19:30;;;;;;;19.33;9.43;;;7.80;99.90;;;;;;5032843;28;20197;-60
2023/02/20 06:22:00;;;;;;;17.40;10.40;;;7.80;99.90;;;;;;5036086;28;20665;-61
2023/02/20 06:24:28;;;;;;;21.77;9.83;;;7.70;99.90;;;;;;5036628;28;20212;-60
2023/02/20 06:26:55;;;;;;;19.30;9.63;;;7.70;99.90;;;;;;5032624;28;20256;-60
2023/02/20 06:29:22;;;;;;;20.63;10.63;;;7.80;99.90;;;;;;5033192;28;20276;-60
2023/02/20 06:31:49;;;;;;;19.73;10.40;;;7.80;99.90;;;;;;5036526;28;20217;-60
2023/02/20 06:34:17;;;;;;;20.03;9.80;;;7.80;99.90;;;;;;5041107;28;20210;-60
2023/02/20 06:36:44;;;;;;;19.43;10.40;;;7.80;99.90;;;;;;5040289;28;20225;-61
2023/02/20 06:39:13;;;;;;;19.90;10.93;;;7.70;99.90;;;;;;5036663;28;20805;-62
2023/02/20 06:41:40;;;;;;;17.27;9.63;;;7.80;99.90;;;;;;5041136;28;20315;-61
2023/02/20 06:44:07;;;;;;;23.20;10.30;;;7.80;99.90;;;;;;5039755;28;20260;-61
2023/02/20 06:46:33;;;;;;;19.00;9.90;;;7.80;99.90;;;;;;5040925;28;20225;-61
2023/02/20 06:49:00;;;;;;;24.87;10.80;;;7.80;99.90;;;;;;5039342;28;20264;-60
2023/02/20 06:51:30;;;;;;;19.50;10.03;;;7.80;99.90;;;;;;5040681;28;20217;-60
2023/02/20 06:53:57;;;;;;;25.97;11.07;;;7.80;99.90;;;;;;5046731;28;20715;-60
2023/02/20 06:56:30;;;;;;;22.23;10.97;;;7.80;99.90;;;;;;5035767;28;20338;-60
2023/02/20 06:58:58;;;;;;;16.50;9.93;;;7.80;99.90;;;;;;5032726;28;20202;-60
2023/02/20 07:01:28;;;;;;;21.53;10.50;;;7.80;99.90;;;;;;5031223;28;20565;-62
2023/02/20 07:03:57;;;;;;;23.40;10.47;;;7.80;99.90;;;;;;5037888;28;20651;-62
2023/02/20 07:06:25;;;;;;;20.50;10.47;;;7.80;99.90;;;;;;5038913;28;20217;-62
2023/02/20 07:08:51;;;;;;;16.13;9.93;;;7.80;99.90;;;;;;5036648;28;20202;-60
2023/02/20 07:11:20;;;;;;;22.23;10.23;;;7.80;99.90;;;;;;5038162;28;20204;-60
2023/02/20 07:13:47;;;;;;;22.10;11.50;;;7.80;99.90;;;;;;5038343;28;20514;-61
2023/02/20 07:16:14;;;;;;;24.53;12.43;;;7.80;99.90;;;;;;5039723;28;20212;-61
2023/02/20 07:18:41;;;;;;;20.37;12.23;;;7.90;99.90;;;;;;5040583;28;20196;-61
2023/02/20 07:21:08;;;;;;;22.17;11.27;;;7.90;99.90;;;;;;5040180;28;20209;-61
2023/02/20 07:23:35;;;;;;;20.90;11.80;;;7.90;99.90;;;;;;5038644;28;20201;-61
2023/02/20 07:26:02;;;;;;;20.00;11.27;;;7.90;99.90;;;;;;5037419;28;20247;-61
2023/02/20 07:28:29;;;;;;;23.40;12.20;;;7.90;99.90;;;;;;5039547;28;20700;-62
2023/02/20 07:30:56;;;;;;;25.27;11.73;;;8.00;99.90;;;;;;5039790;28;20389;-63
2023/02/20 07:33:22;;;;;;;20.13;11.70;;;8.00;99.90;;;;;;5040790;28;20292;-60
2023/02/20 07:35:49;;;;;;;21.57;12.23;;;7.90;99.90;;;;;;5033546;28;20319;-61
2023/02/20 07:38:16;;;;;;;26.97;12.53;;;8.00;99.90;;;;;;5034408;28;20204;-61
2023/02/20 07:40:43;;;;;;;22.77;12.07;;;8.00;99.90;;;;;;5040663;28;21878;-62
2023/02/20 07:43:10;;;;;;;19.13;10.87;;;8.00;99.90;;;;;;5033308;28;20227;-61
2023/02/20 07:45:38;;;;;;;20.50;10.83;;;8.00;99.90;;;;;;5040534;28;20240;-61
2023/02/20 07:48:05;;;;;;;21.30;11.97;;;8.00;99.90;;;;;;4674590;28;10000466;-64
2023/02/20 07:50:33;;;;;;;22.23;11.00;;;8.00;99.90;;;;;;5027004;28;20679;-60
2023/02/20 07:53:00;;;;;;;22.70;11.13;;;8.00;99.90;;;;;;5028781;28;20261;-65
2023/02/20 07:55:27;;;;;;;19.37;11.00;;;8.00;99.90;;;;;;5033651;28;20722;-62
2023/02/20 07:57:56;;;;;;;23.87;11.73;;;8.00;99.90;;;;;;5031165;28;20248;-63
2023/02/20 08:00:25;;;;;;;23.97;11.37;;;8.00;99.90;;;;;;5023602;28;20725;-61
2023/02/20 08:02:52;;;;;;;18.57;10.80;;;8.00;99.90;;;;;;5023415;28;20290;-62
2023/02/20 08:05:19;;;;;;;23.57;11.30;;;8.10;99.90;;;;;;5031114;28;20635;-59
2023/02/20 08:07:47;;;;;;;19.07;11.43;;;8.00;99.90;;;;;;5027921;28;20214;-62
2023/02/20 08:10:17;;;;;;;18.60;10.53;;;8.10;99.90;;;;;;4681341;28;10000541;-62
2023/02/20 08:12:44;;;;;;;18.00;10.57;;;8.10;99.90;;;;;;5032466;28;20298;-62
2023/02/20 08:15:11;;;;;;;16.87;9.90;;;8.00;99.90;;;;;;5029111;28;20216;-60
2023/02/20 08:17:39;;;;;;;19.60;10.07;;;8.10;99.90;;;;;;5029072;28;20206;-64
2023/02/20 08:20:15;;;;;;;14.87;9.80;;;8.10;99.90;;;;;;5028819;28;20254;-63
2023/02/20 08:22:46;;;;;;;16.77;9.87;;;8.10;99.90;;;;;;5026414;28;20248;-61
2023/02/20 08:25:14;;;;;;;22.27;10.67;;;8.10;99.90;;;;;;5030847;28;20317;-62
2023/02/20 08:27:46;;;;;;;15.83;10.70;;;8.10;99.90;;;;;;5030828;28;20234;-65
2023/02/20 08:30:24;;;;;;;18.80;10.60;;;8.10;99.90;;;;;;5029542;28;20665;-64
2023/02/20 08:32:53;;;;;;;17.17;10.70;;;8.20;99.90;;;;;;5026738;28;20206;-62
2023/02/20 08:35:23;;;;;;;20.37;10.40;;;8.20;99.90;;;;;;5027618;28;20212;-64
2023/02/20 08:37:50;;;;;;;18.70;10.87;;;8.20;99.90;;;;;;5027280;28;20720;-62
2023/02/20 08:40:17;;;;;;;21.40;11.53;;;8.20;99.90;;;;;;5025872;28;20242;-63
2023/02/20 08:42:44;;;;;;;20.13;11.17;;;8.30;99.90;;;;;;5031303;28;20282;-64
2023/02/20 08:45:13;;;;;;;17.67;10.17;;;8.20;99.90;;;;;;5037785;28;20210;-60
2023/02/20 08:47:40;;;;;;;18.00;9.60;;;8.30;99.90;;;;;;5028999;28;20465;-64
2023/02/20 08:50:07;;;;;;;24.10;12.27;;;8.30;99.90;;;;;;5029619;28;20205;-61
2023/02/20 08:52:33;;;;;;;23.43;11.50;;;8.30;99.90;;;;;;5027334;28;20216;-62
2023/02/20 08:55:00;;;;;;;23.40;11.30;;;8.40;99.90;;;;;;5030216;28;20277;-61
2023/02/20 08:57:27;;;;;;;18.57;12.40;;;8.40;99.90;;;;;;5026402;28;20297;-61
2023/02/20 08:59:54;;;;;;;16.50;10.40;;;8.40;99.90;;;;;;5029868;28;20290;-62
2023/02/20 09:02:28;;;;;;;18.93;11.90;;;8.40;99.90;;;;;;5028359;28;20201;-63
2023/02/20 09:04:55;;;;;;;19.23;9.90;;;8.40;99.90;;;;;;5022907;28;20300;-61
2023/02/20 09:07:23;;;;;;;26.07;11.93;;;8.40;99.90;;;;;;5030733;28;20228;-61
2023/02/20 09:09:50;;;;;;;25.93;11.57;;;8.40;99.90;;;;;;5029179;28;20571;-60
2023/02/20 09:12:18;;;;;;;21.67;10.47;;;8.30;99.90;;;;;;5028132;28;20234;-64
2023/02/20 09:14:45;;;;;;;17.80;10.93;;;8.40;99.90;;;;;;5028686;28;20680;-63
2023/02/20 09:17:12;;;;;;;19.43;11.03;;;8.30;99.90;;;;;;5032219;28;20220;-64
2023/02/20 09:19:39;;;;;;;20.23;11.07;;;8.40;99.90;;;;;;5023732;28;20227;-64
2023/02/20 09:22:06;;;;;;;18.90;11.27;;;8.40;99.90;;;;;;5019306;28;20206;-66
2023/02/20 09:24:34;;;;;;;19.13;10.80;;;8.40;99.90;;;;;;5017769;28;20215;-64
2023/02/20 09:27:03;;;;;;;19.20;10.97;;;8.40;99.90;;;;;;5019684;28;20210;-65
2023/02/20 09:29:30;;;;;;;17.97;10.90;;;8.50;99.90;;;;;;5019216;28;20780;-64
2023/02/20 09:31:57;;;;;;;25.43;12.20;;;8.50;99.90;;;;;;5023815;28;20573;-64
2023/02/20 09:34:25;;;;;;;17.60;10.60;;;8.50;99.90;;;;;;5007967;28;20198;-64
2023/02/20 09:36:52;;;;;;;21.13;11.47;;;8.60;99.90;;;;;;5030947;28;20234;-68
2023/02/20 09:39:21;;;;;;;17.03;10.70;;;8.60;99.90;;;;;;5017161;28;20276;-65
2023/02/20 09:41:53;;;;;;;24.37;11.33;;;8.60;99.90;;;;;;5020482;28;20204;-64
2023/02/20 09:44:32;;;;;;;18.20;11.00;;;8.60;99.90;;;;;;5029459;28;20209;-61
2023/02/20 09:47:34;;;;;;;24.27;11.17;;;8.60;99.90;;;;;;5027966;28;20212;-62
2023/02/20 09:50:06;;;;;;;20.43;10.50;;;8.60;99.90;;;;;;4996595;28;20668;-64
2023/02/20 09:52:38;;;;;;;21.00;10.63;;;8.60;99.90;;;;;;5009790;28;20229;-64
2023/02/20 09:55:19;;;;;;;21.23;10.50;;;8.60;99.90;;;;;;5007689;28;20764;-66
2023/02/20 09:57:53;;;;;;;19.50;10.07;;;8.70;99.90;;;;;;5023610;28;20573;-62
2023/02/20 10:00:27;;;;;;;19.47;10.20;;;8.70;99.90;;;;;;5033650;28;20535;-63
2023/02/20 10:03:16;;;;;;;18.77;9.93;;;8.70;99.90;;;;;;5028415;28;20235;-66
2023/02/20 10:05:46;;;;;;;17.07;10.00;;;8.60;99.90;;;;;;5000797;28;20274;-64
2023/02/20 10:08:20;;;;;;;20.60;10.20;;;8.60;99.90;;;;;;5037747;28;20299;-64
2023/02/20 10:10:54;;;;;;;20.40;10.97;;;8.60;99.90;;;;;;5031171;28;20229;-64
2023/02/20 10:13:35;;;;;;;21.17;10.53;;;8.70;99.90;;;;;;5032057;28;20202;-65
2023/02/20 10:16:11;;;;;;;22.47;9.90;;;8.70;99.90;;;;;;5028749;28;20190;-63
2023/02/20 10:19:03;;;;;;;18.03;9.53;;;8.70;99.90;;;;;;5027055;28;20195;-63
2023/02/20 10:21:42;;;;;;;13.27;8.50;;;8.70;99.90;;;;;;5030216;28;20599;-65
2023/02/20 10:24:54;;;;;;;15.00;9.30;;;8.70;99.90;;;;;;5029220;28;20211;-64
2023/02/20 10:27:49;;;;;;;15.97;10.33;;;8.70;99.90;;;;;;5031794;28;20237;-66
2023/02/20 10:30:30;;;;;;;17.47;10.20;;;8.70;99.90;;;;;;5030895;28;20196;-65
2023/02/20 10:33:14;;;;;;;23.60;9.67;;;8.70;99.90;;;;;;5026996;28;20224;-65
2023/02/20 10:35:46;;;;;;;18.67;12.57;;;8.80;99.90;;;;;;5029805;28;20318;-64
2023/02/20 10:38:20;;;;;;;21.23;10.83;;;8.70;99.90;;;;;;5028392;28;20206;-64
2023/02/20 10:40:52;;;;;;;17.23;9.57;;;8.70;99.90;;;;;;5028808;28;20204;-65
2023/02/20 10:43:32;;;;;;;17.40;9.13;;;8.70;99.90;;;;;;5020853;28;20201;-64
2023/02/20 10:46:47;;;;;;;22.37;9.83;;;8.80;99.90;;;;;;5025754;28;20283;-63
2023/02/20 10:49:34;;;;;;;22.03;10.90;;;8.80;99.90;;;;;;4995303;28;21186;-64
2023/02/20 10:52:02;;;;;;;20.83;10.27;;;8.80;99.90;;;;;;4996343;28;20289;-66
2023/02/20 10:54:55;;;;;;;17.47;11.17;;;8.80;99.90;;;;;;5018242;28;20241;-61
2023/02/20 10:57:29;;;;;;;19.17;9.53;;;8.80;99.90;;;;;;5026709;28;20205;-61
2023/02/20 11:00:08;;;;;;;16.50;8.73;;;8.80;99.90;;;;;;5023402;28;20255;-62
2023/02/20 11:02:42;;;;;;;16.00;8.77;;;8.80;99.90;;;;;;5023713;28;20197;-62
2023/02/20 11:05:16;;;;;;;16.10;8.27;;;8.80;99.90;;;;;;5025818;28;20212;-64
2023/02/20 11:07:43;;;;;;;15.33;7.50;;;8.80;99.90;;;;;;5025769;28;20686;-61
2023/02/20 11:10:10;;;;;;;14.57;8.10;;;8.80;99.90;;;;;;5029961;28;20742;-63
2023/02/20 11:12:47;;;;;;;17.67;8.70;;;8.80;99.90;;;;;;5035248;28;20656;-61
2023/02/20 11:15:24;;;;;;;16.97;7.87;;;8.90;99.90;;;;;;5031079;28;20990;-61
2023/02/20 11:17:53;;;;;;;15.03;8.87;;;8.90;99.90;;;;;;5042858;28;20213;-62
2023/02/20 11:20:32;;;;;;;16.50;8.30;;;8.90;99.90;;;;;;5036512;28;20299;-61
2023/02/20 11:23:03;;;;;;;17.90;8.63;;;8.90;99.90;;;;;;5036841;28;20209;-62
2023/02/20 11:25:34;;;;;;;16.20;7.67;;;8.90;99.90;;;;;;5032678;28;20233;-61
2023/02/20 11:28:19;;;;;;;12.47;7.27;;;8.80;99.90;;;;;;5034449;28;20265;-61
2023/02/20 11:30:56;;;;;;;10.67;5.70;;;8.80;99.90;;;;;;5035479;28;20203;-62
2023/02/20 11:33:28;;;;;;;13.43;5.43;;;8.80;99.90;;;;;;5037897;28;20200;-62
2023/02/20 11:36:24;;;;;;;15.33;4.77;;;8.80;99.90;;;;;;5039370;28;20276;-61
2023/02/20 11:39:02;;;;;;;13.30;5.80;;;8.90;99.90;;;;;;5037483;28;20207;-60
2023/02/20 11:41:32;;;;;;;12.87;6.33;;;8.90;99.90;;;;;;5039424;28;20215;-61
2023/02/20 11:44:21;;;;;;;10.00;5.53;;;8.90;99.90;;;;;;5040341;28;20211;-60
2023/02/20 11:47:09;;;;;;;15.63;6.53;;;8.90;99.90;;;;;;5038390;28;20232;-60
2023/02/20 11:49:36;;;;;;;12.40;5.97;;;8.90;99.90;;;;;;5035926;28;20587;-61
2023/02/20 11:52:09;;;;;;;10.77;5.43;;;9.00;99.90;;;;;;5039236;28;20275;-61
2023/02/20 11:54:35;;;;;;;9.87;5.57;;;9.00;99.90;;;;;;5037296;28;20225;-61
2023/02/20 11:57:15;;;;;;;9.77;4.50;;;9.10;99.90;;;;;;5039444;28;20205;-61
2023/02/20 11:59:47;;;;;;;14.40;5.00;;;9.00;99.90;;;;;;5038264;28;20199;-60
2023/02/20 12:02:17;;;;;;;10.23;4.70;;;9.10;99.90;;;;;;5034105;28;20720;-60
2023/02/20 12:05:05;;;;;;;10.67;4.73;;;9.10;99.90;;;;;;5032014;28;20271;-60
2023/02/20 12:07:37;;;;;;;10.83;4.40;;;9.10;99.90;;;;;;5036263;28;20220;-60
2023/02/20 12:10:42;;;;;;;7.27;3.73;;;9.20;99.90;;;;;;5037412;28;20208;-61
2023/02/20 12:13:14;;;;;;;9.63;3.60;;;9.30;99.90;;;;;;5037889;28;20272;-62
2023/02/20 12:15:42;;;;;;;9.17;4.10;;;9.30;99.90;;;;;;5037608;28;20287;-61
2023/02/20 12:18:24;;;;;;;12.03;3.77;;;9.40;99.90;;;;;;5036463;28;20214;-60
2023/02/20 12:21:28;;;;;;;8.17;3.87;;;9.40;99.90;;;;;;5036951;28;20228;-61
2023/02/20 12:24:35;;;;;;;6.17;4.50;;;9.50;99.90;;;;;;5036823;28;20208;-60
2023/02/20 12:27:15;;;;;;;6.13;3.63;;;9.60;99.90;;;;;;5033679;28;20222;-60
2023/02/20 12:29:50;;;;;;;6.07;4.20;;;9.50;99.90;;;;;;5036919;28;20204;-63
2023/02/20 12:32:24;;;;;;;7.10;3.63;;;9.50;99.90;;;;;;5034095;28;20641;-63
2023/02/20 12:35:21;;;;;;;7.60;3.90;;;9.50;99.90;;;;;;5032386;28;20261;-63
2023/02/20 12:38:03;;;;;;;5.10;3.63;;;9.70;99.90;;;;;;5032683;28;20228;-63
2023/02/20 12:41:01;;;;;;;11.50;4.57;;;9.60;99.90;;;;;;5038483;28;20292;-64
2023/02/20 12:44:08;;;;;;;10.20;5.07;;;9.80;99.90;;;;;;5036982;28;20547;-63
2023/02/20 12:47:15;;;;;;;10.87;6.73;;;9.90;99.90;;;;;;4977664;28;20219;-62
2023/02/20 12:49:53;;;;;;;14.43;7.50;;;9.80;99.90;;;;;;5036055;28;20580;-63
2023/02/20 12:52:35;;;;;;;15.43;10.13;;;9.80;99.90;;;;;;5038707;28;20196;-62
2023/02/20 12:55:02;;;;;;;13.77;10.27;;;9.80;99.90;;;;;;5036614;28;20244;-63
2023/02/20 12:57:47;;;;;;;18.33;11.20;;;9.90;99.90;;;;;;5036887;28;20538;-62
2023/02/20 13:00:35;;;;;;;19.10;11.87;;;9.80;99.90;;;;;;5037091;28;20203;-62
2023/02/20 13:03:14;;;;;;;23.73;13.57;;;9.70;99.90;;;;;;5036817;28;20216;-63
2023/02/20 13:05:44;;;;;;;21.97;12.83;;;9.60;99.90;;;;;;5033891;28;20206;-63
2023/02/20 13:08:28;;;;;;;18.97;12.63;;;9.60;99.90;;;;;;5034438;28;20299;-62
2023/02/20 13:11:03;;;;;;;17.10;11.67;;;9.70;99.90;;;;;;5043282;28;20303;-63
2023/02/20 13:13:54;;;;;;;20.67;12.27;;;9.60;99.90;;;;;;5036496;28;20213;-63
2023/02/20 13:16:40;;;;;;;16.83;11.27;;;9.60;99.90;;;;;;5032273;28;20272;-63
2023/02/20 13:19:10;;;;;;;21.27;11.07;;;9.70;99.90;;;;;;5034578;28;20212;-63
2023/02/20 13:21:37;;;;;;;14.87;10.13;;;9.70;99.90;;;;;;5037561;28;20750;-63
2023/02/20 13:24:18;;;;;;;16.60;9.80;;;9.80;99.90;;;;;;5036810;28;20681;-63